createdAt,value
2022-11-27T00:01:32.808Z,5.21
2022-11-27T00:04:00.844Z,5.21
2022-11-27T00:06:30.898Z,5.27
2022-11-27T00:08:59.667Z,5.19
2022-11-27T00:11:30.571Z,5.18
2022-11-27T00:13:58.867Z,5.07
2022-11-27T00:16:28.354Z,5.02
2022-11-27T00:18:56.555Z,4.99
2022-11-27T00:21:26.516Z,5.02
2022-11-27T00:23:56.383Z,5.06
2022-11-27T00:26:25.084Z,5.02
2022-11-27T00:28:55.992Z,4.99
2022-11-27T00:31:28.451Z,5.02
2022-11-27T00:33:57.749Z,4.98
2022-11-27T00:36:26.140Z,4.94
2022-11-27T00:38:54.160Z,4.93
2022-11-27T00:41:24.675Z,4.89
2022-11-27T00:43:53.763Z,4.91
2022-11-27T00:46:28.367Z,4.75
2022-11-27T00:48:57.367Z,4.92
2022-11-27T00:51:26.572Z,4.87
2022-11-27T00:53:55.834Z,4.91
2022-11-27T00:56:26.730Z,4.84
2022-11-27T00:58:55.771Z,4.86
2022-11-27T01:01:27.241Z,4.78
2022-11-27T01:03:56.616Z,4.86
2022-11-27T01:06:24.733Z,4.89
2022-11-27T01:08:52.707Z,4.89
2022-11-27T01:11:22.532Z,4.89
2022-11-27T01:13:50.587Z,4.88
2022-11-27T01:16:20.347Z,4.93
2022-11-27T01:18:51.309Z,4.86
2022-11-27T01:21:21.140Z,4.81
2022-11-27T01:23:50.425Z,4.84
2022-11-27T01:26:19.561Z,4.87
2022-11-27T01:28:48.129Z,4.89
2022-11-27T01:31:19.228Z,4.81
2022-11-27T01:33:52.829Z,4.86
2022-11-27T01:36:20.910Z,4.88
2022-11-27T01:38:49.146Z,4.89
2022-11-27T01:41:19.754Z,4.71
2022-11-27T01:43:49.923Z,4.94
2022-11-27T01:46:34.860Z,4.87
2022-11-27T01:49:26.907Z,4.94
2022-11-27T01:51:57.099Z,4.95
2022-11-27T01:54:29.547Z,4.91
2022-11-27T01:57:02.548Z,4.92
2022-11-27T01:59:31.234Z,4.91
2022-11-27T02:01:59.357Z,4.91
2022-11-27T02:04:28.781Z,4.91
2022-11-27T02:06:59.980Z,4.93
2022-11-27T02:09:29.266Z,4.96
2022-11-27T02:12:03.218Z,4.96
2022-11-27T02:14:38.605Z,5.01
2022-11-27T02:17:12.982Z,4.86
2022-11-27T02:20:11.859Z,4.87
2022-11-27T02:23:02.018Z,4.96
2022-11-27T02:25:35.594Z,5.00
2022-11-27T02:28:22.455Z,5.01
2022-11-27T02:30:58.092Z,5.03
2022-11-27T02:33:27.065Z,4.95
2022-11-27T02:36:00.092Z,5.02
2022-11-27T02:38:32.408Z,5.03
2022-11-27T02:41:06.025Z,5.07
2022-11-27T02:43:37.193Z,5.14
2022-11-27T02:46:09.044Z,5.07
2022-11-27T02:48:41.852Z,5.09
2022-11-27T02:51:12.985Z,5.14
2022-11-27T02:53:44.539Z,5.07
2022-11-27T02:56:17.578Z,5.05
2022-11-27T02:58:47.467Z,4.94
2022-11-27T03:01:21.114Z,4.95
2022-11-27T03:03:53.551Z,4.72
2022-11-27T03:06:26.969Z,4.87
2022-11-27T03:08:58.572Z,4.80
2022-11-27T03:11:30.717Z,4.85
2022-11-27T03:14:04.531Z,4.66
2022-11-27T03:16:38.936Z,4.79
2022-11-27T03:19:17.036Z,4.78
2022-11-27T03:21:49.267Z,4.82
2022-11-27T03:24:17.685Z,4.71
2022-11-27T03:26:45.814Z,4.73
2022-11-27T03:29:17.804Z,4.69
2022-11-27T03:31:47.432Z,4.72
2022-11-27T03:34:16.251Z,4.72
2022-11-27T03:36:44.184Z,4.76
2022-11-27T03:39:12.291Z,4.72
2022-11-27T03:41:49.520Z,4.67
2022-11-27T03:44:27.588Z,4.75
2022-11-27T03:47:11.888Z,4.70
2022-11-27T03:49:57.840Z,4.76
2022-11-27T03:52:32.501Z,4.71
2022-11-27T03:55:07.539Z,4.72
2022-11-27T03:57:39.611Z,4.69
2022-11-27T04:00:10.512Z,4.60
2022-11-27T04:02:45.638Z,4.50
2022-11-27T04:05:15.055Z,4.55
2022-11-27T04:07:43.492Z,4.56
2022-11-27T04:10:12.580Z,4.52
2022-11-27T04:12:40.689Z,4.47
2022-11-27T04:15:09.133Z,4.52
2022-11-27T04:17:37.201Z,4.41
2022-11-27T04:20:08.154Z,4.37
2022-11-27T04:22:36.132Z,4.38
2022-11-27T04:25:04.178Z,4.33
2022-11-27T04:27:32.248Z,4.32
2022-11-27T04:30:00.248Z,4.27
2022-11-27T04:32:28.119Z,4.24
2022-11-27T04:34:56.077Z,4.21
2022-11-27T04:37:25.357Z,4.29
2022-11-27T04:39:53.272Z,4.19
2022-11-27T04:42:21.201Z,4.21
2022-11-27T04:44:49.133Z,4.12
2022-11-27T04:47:17.365Z,4.15
2022-11-27T04:49:45.320Z,4.16
2022-11-27T04:52:13.326Z,4.16
2022-11-27T04:54:42.904Z,4.07
2022-11-27T04:57:11.028Z,4.10
2022-11-27T04:59:39.037Z,4.09
2022-11-27T05:02:07.006Z,4.09
2022-11-27T05:04:35.160Z,4.06
2022-11-27T05:07:03.425Z,4.06
2022-11-27T05:09:31.354Z,3.92
2022-11-27T05:12:00.653Z,3.96
2022-11-27T05:14:29.313Z,3.85
2022-11-27T05:16:59.133Z,3.93
2022-11-27T05:19:29.191Z,3.90
2022-11-27T05:21:57.311Z,3.93
2022-11-27T05:24:27.635Z,4.00
2022-11-27T05:26:56.028Z,3.95
2022-11-27T05:29:26.243Z,3.91
2022-11-27T05:31:54.593Z,4.00
2022-11-27T05:34:22.637Z,4.00
2022-11-27T05:36:50.681Z,3.92
2022-11-27T05:39:18.577Z,3.98
2022-11-27T05:41:46.487Z,4.01
2022-11-27T05:44:15.820Z,3.97
2022-11-27T05:46:45.314Z,3.91
2022-11-27T05:49:15.398Z,3.95
2022-11-27T05:51:50.694Z,3.88
2022-11-27T05:54:19.135Z,3.93
2022-11-27T05:56:47.120Z,3.98
2022-11-27T05:59:15.485Z,3.94
2022-11-27T06:01:45.080Z,3.93
2022-11-27T06:04:13.047Z,4.04
2022-11-27T06:06:40.942Z,4.10
2022-11-27T06:09:12.796Z,4.13
2022-11-27T06:11:42.125Z,4.10
2022-11-27T06:14:11.321Z,4.26
2022-11-27T06:16:39.417Z,4.27
2022-11-27T06:19:09.818Z,4.22
2022-11-27T06:21:38.130Z,4.35
2022-11-27T06:24:06.351Z,4.32
2022-11-27T06:26:35.056Z,4.37
2022-11-27T06:29:03.215Z,4.53
2022-11-27T06:31:33.447Z,4.53
2022-11-27T06:34:02.544Z,4.49
2022-11-27T06:36:34.230Z,4.59
2022-11-27T06:39:02.977Z,4.49
2022-11-27T06:41:30.951Z,4.56
2022-11-27T06:44:01.346Z,4.56
2022-11-27T06:46:30.371Z,4.61
2022-11-27T06:48:59.082Z,4.63
2022-11-27T06:51:29.189Z,4.67
2022-11-27T06:54:00.781Z,4.65
2022-11-27T06:56:31.371Z,4.61
2022-11-27T06:59:00.951Z,4.65
2022-11-27T07:01:30.991Z,4.65
2022-11-27T07:03:59.808Z,4.60
2022-11-27T07:06:29.138Z,4.63
2022-11-27T07:08:58.506Z,4.54
2022-11-27T07:11:28.572Z,4.52
2022-11-27T07:13:58.216Z,4.55
2022-11-27T07:16:27.211Z,4.55
2022-11-27T07:18:57.417Z,4.60
2022-11-27T07:21:25.892Z,4.60
2022-11-27T07:23:53.984Z,4.68
2022-11-27T07:26:25.329Z,4.76
2022-11-27T07:28:53.784Z,4.68
2022-11-27T07:31:23.799Z,4.63
2022-11-27T07:33:53.201Z,4.71
2022-11-27T07:36:23.439Z,4.74
2022-11-27T07:38:51.997Z,4.78
2022-11-27T07:41:22.509Z,4.86
2022-11-27T07:43:51.717Z,4.89
2022-11-27T07:46:21.888Z,5.00
2022-11-27T07:48:50.485Z,4.96
2022-11-27T07:51:20.883Z,5.05
2022-11-27T07:53:51.600Z,4.98
2022-11-27T07:56:20.210Z,5.13
2022-11-27T07:58:48.124Z,5.14
2022-11-27T08:01:18.821Z,5.17
2022-11-27T08:03:47.696Z,5.22
2022-11-27T08:06:18.209Z,5.11
2022-11-27T08:08:46.536Z,5.19
2022-11-27T08:11:22.376Z,5.27
2022-11-27T08:13:52.202Z,5.32
2022-11-27T08:16:21.479Z,5.53
2022-11-27T08:18:49.555Z,5.64
2022-11-27T08:21:17.498Z,5.80
2022-11-27T08:23:45.554Z,5.82
2022-11-27T08:26:14.514Z,5.81
2022-11-27T08:28:43.310Z,6.14
2022-11-27T08:31:13.305Z,6.31
2022-11-27T08:33:42.656Z,6.20
2022-11-27T08:36:16.307Z,6.28
2022-11-27T08:38:46.114Z,6.36
2022-11-27T08:41:14.187Z,6.32
2022-11-27T08:43:42.094Z,6.40
2022-11-27T08:46:10.470Z,6.61
2022-11-27T08:48:38.662Z,6.58
2022-11-27T08:51:10.520Z,6.40
2022-11-27T08:53:39.144Z,6.66
2022-11-27T08:56:08.974Z,6.65
2022-11-27T08:58:36.957Z,6.65
2022-11-27T09:01:12.529Z,6.55
2022-11-27T09:03:40.775Z,6.79
2022-11-27T09:06:12.051Z,6.66
2022-11-27T09:08:40.830Z,6.71
2022-11-27T09:11:08.992Z,7.09
2022-11-27T09:13:37.638Z,7.81
2022-11-27T09:16:06.718Z,7.82
2022-11-27T09:18:35.356Z,7.54
2022-11-27T09:21:05.998Z,7.56
2022-11-27T09:23:37.407Z,8.65
2022-11-27T09:26:07.549Z,9.86
2022-11-27T09:28:36.224Z,9.18
2022-11-27T09:31:06.196Z,8.97
2022-11-27T09:33:35.784Z,8.24
2022-11-27T09:36:06.294Z,7.63
2022-11-27T09:38:36.493Z,7.64
2022-11-27T09:41:27.485Z,7.31
2022-11-27T09:43:58.924Z,7.38
2022-11-27T09:46:31.994Z,8.74
2022-11-27T09:49:03.354Z,12.51
2022-11-27T09:51:36.542Z,16.35
2022-11-27T09:54:16.856Z,18.87
2022-11-27T09:56:50.335Z,16.70
2022-11-27T09:59:22.086Z,14.06
2022-11-27T10:01:52.335Z,11.30
2022-11-27T10:04:22.572Z,10.94
2022-11-27T10:07:11.626Z,10.36
2022-11-27T10:09:55.792Z,10.15
2022-11-27T10:12:31.735Z,9.72
2022-11-27T10:15:08.165Z,8.98
2022-11-27T10:17:41.245Z,8.67
2022-11-27T10:20:20.498Z,8.70
2022-11-27T10:22:58.395Z,8.49
2022-11-27T10:25:32.152Z,8.24
2022-11-27T10:28:07.674Z,8.34
2022-11-27T10:30:40.766Z,8.48
2022-11-27T10:33:18.490Z,8.26
2022-11-27T10:35:49.692Z,8.25
2022-11-27T10:38:20.287Z,8.15
2022-11-27T10:40:56.586Z,8.32
2022-11-27T10:43:25.642Z,8.35
2022-11-27T10:45:57.460Z,8.29
2022-11-27T10:48:27.630Z,8.43
2022-11-27T10:50:55.638Z,8.37
2022-11-27T10:53:28.358Z,8.32
2022-11-27T10:56:15.592Z,8.48
2022-11-27T10:58:48.190Z,8.40
2022-11-27T11:01:18.230Z,8.51
2022-11-27T11:03:46.561Z,8.41
2022-11-27T11:06:21.207Z,8.45
2022-11-27T11:09:01.603Z,8.40
2022-11-27T11:11:30.959Z,8.36
2022-11-27T11:13:59.088Z,8.52
2022-11-27T11:16:34.475Z,8.51
2022-11-27T11:19:03.614Z,8.62
2022-11-27T11:21:34.923Z,8.65
2022-11-27T11:24:05.071Z,8.80
2022-11-27T11:26:38.863Z,8.83
2022-11-27T11:29:19.108Z,8.66
2022-11-27T11:31:47.253Z,8.58
2022-11-27T11:34:21.579Z,8.81
2022-11-27T11:36:59.914Z,8.65
2022-11-27T11:39:30.577Z,8.88
2022-11-27T11:42:00.432Z,8.93
2022-11-27T11:44:34.048Z,8.80
2022-11-27T11:47:01.995Z,8.79
2022-11-27T11:49:32.637Z,8.86
2022-11-27T11:52:22.101Z,8.77
2022-11-27T11:54:59.273Z,8.75
2022-11-27T11:57:55.150Z,8.63
2022-11-27T12:00:30.304Z,8.67
2022-11-27T12:03:22.026Z,8.75
2022-11-27T12:06:06.923Z,8.73
2022-11-27T12:08:45.309Z,8.82
2022-11-27T12:11:16.189Z,8.85
2022-11-27T12:14:00.928Z,8.75
2022-11-27T12:16:37.758Z,8.72
2022-11-27T12:19:41.552Z,8.96
2022-11-27T12:22:22.993Z,8.98
2022-11-27T12:25:03.463Z,9.12
2022-11-27T12:27:43.384Z,8.92
2022-11-27T12:30:18.710Z,9.08
2022-11-27T12:33:19.168Z,9.01
2022-11-27T12:35:58.238Z,8.98
2022-11-27T12:38:38.671Z,8.91
2022-11-27T12:41:37.771Z,9.02
2022-11-27T12:44:19.085Z,9.07
2022-11-27T12:46:55.741Z,8.97
2022-11-27T12:49:28.985Z,9.01
2022-11-27T12:52:03.847Z,8.90
2022-11-27T12:54:37.320Z,8.92
2022-11-27T12:57:09.312Z,9.02
2022-11-27T12:59:44.231Z,8.95
2022-11-27T13:02:27.859Z,8.98
2022-11-27T13:05:00.761Z,9.07
2022-11-27T13:07:38.807Z,9.12
2022-11-27T13:10:15.442Z,8.99
2022-11-27T13:12:50.617Z,9.11
2022-11-27T13:15:25.173Z,9.22
2022-11-27T13:17:59.710Z,9.39
2022-11-27T13:20:34.897Z,9.34
2022-11-27T13:23:03.080Z,9.34
2022-11-27T13:25:33.286Z,9.32
2022-11-27T13:28:04.567Z,9.35
2022-11-27T13:30:35.138Z,9.28
2022-11-27T13:33:07.082Z,9.14
2022-11-27T13:35:41.960Z,9.32
2022-11-27T13:38:12.782Z,9.27
2022-11-27T13:40:43.209Z,9.03
2022-11-27T13:43:23.944Z,9.37
2022-11-27T13:45:52.946Z,9.35
2022-11-27T13:48:31.233Z,9.30
2022-11-27T13:51:00.404Z,9.22
2022-11-27T13:53:34.326Z,9.19
2022-11-27T13:56:02.470Z,9.15
2022-11-27T13:58:33.113Z,9.15
2022-11-27T14:01:13.757Z,9.21
2022-11-27T14:03:43.608Z,9.17
2022-11-27T14:06:21.949Z,9.13
2022-11-27T14:08:59.989Z,9.09
2022-11-27T14:11:39.882Z,9.19
2022-11-27T14:14:19.087Z,9.12
2022-11-27T14:16:58.673Z,9.23
2022-11-27T14:19:34.380Z,9.22
2022-11-27T14:22:03.276Z,9.33
2022-11-27T14:24:41.587Z,9.32
2022-11-27T14:27:18.237Z,9.25
2022-11-27T14:29:47.162Z,9.11
2022-11-27T14:32:21.891Z,9.10
2022-11-27T14:34:51.354Z,9.14
2022-11-27T14:37:23.466Z,9.05
2022-11-27T14:39:51.939Z,9.04
2022-11-27T14:42:28.243Z,9.00
2022-11-27T14:45:14.781Z,8.91
2022-11-27T14:47:49.347Z,8.92
2022-11-27T14:50:19.522Z,8.88
2022-11-27T14:52:53.060Z,8.84
2022-11-27T14:55:20.945Z,8.75
2022-11-27T14:57:50.899Z,8.88
2022-11-27T15:00:21.616Z,8.78
2022-11-27T15:02:50.904Z,8.79
2022-11-27T15:05:23.717Z,8.76
2022-11-27T15:07:54.241Z,8.70
2022-11-27T15:10:32.667Z,8.72
2022-11-27T15:13:02.842Z,8.59
2022-11-27T15:15:34.611Z,8.69
2022-11-27T15:18:05.409Z,8.70
2022-11-27T15:20:39.565Z,8.67
2022-11-27T15:23:17.491Z,8.65
2022-11-27T15:25:47.472Z,8.55
2022-11-27T15:28:41.328Z,8.62
2022-11-27T15:31:38.257Z,8.62
2022-11-27T15:34:20.949Z,8.66
2022-11-27T15:36:55.036Z,8.68
2022-11-27T15:39:25.682Z,8.68
2022-11-27T15:41:56.639Z,8.55
2022-11-27T15:44:26.252Z,8.64
2022-11-27T15:46:56.238Z,8.67
2022-11-27T15:49:24.790Z,8.71
2022-11-27T15:51:55.748Z,8.61
2022-11-27T15:54:24.681Z,8.46
2022-11-27T15:56:52.911Z,8.50
2022-11-27T15:59:21.050Z,8.52
2022-11-27T16:01:50.247Z,8.38
2022-11-27T16:04:18.328Z,8.37
2022-11-27T16:06:46.349Z,8.47
2022-11-27T16:09:15.805Z,8.41
2022-11-27T16:11:43.890Z,8.36
2022-11-27T16:14:12.675Z,8.38
2022-11-27T16:16:40.721Z,8.30
2022-11-27T16:19:12.121Z,8.40
2022-11-27T16:21:40.248Z,8.35
2022-11-27T16:24:12.045Z,8.45
2022-11-27T16:26:42.230Z,8.35
2022-11-27T16:29:11.010Z,8.33
2022-11-27T16:31:39.100Z,8.25
2022-11-27T16:34:08.391Z,8.23
2022-11-27T16:36:41.887Z,8.28
2022-11-27T16:39:10.115Z,8.13
2022-11-27T16:41:38.573Z,8.02
2022-11-27T16:44:11.779Z,7.87
2022-11-27T16:46:40.056Z,8.12
2022-11-27T16:49:08.405Z,8.09
2022-11-27T16:51:39.203Z,8.11
2022-11-27T16:54:10.855Z,8.01
2022-11-27T16:56:41.259Z,8.13
2022-11-27T16:59:13.152Z,8.04
2022-11-27T17:01:42.633Z,8.06
2022-11-27T17:04:18.333Z,8.00
2022-11-27T17:06:46.928Z,8.06
2022-11-27T17:09:15.788Z,8.12
2022-11-27T17:11:48.279Z,7.86
2022-11-27T17:14:19.544Z,8.01
2022-11-27T17:16:47.710Z,8.11
2022-11-27T17:19:16.780Z,8.04
2022-11-27T17:21:46.573Z,8.04
2022-11-27T17:24:16.400Z,8.00
2022-11-27T17:26:48.535Z,8.05
2022-11-27T17:29:21.633Z,8.08
2022-11-27T17:31:51.896Z,8.04
2022-11-27T17:34:23.045Z,8.00
2022-11-27T17:36:57.871Z,8.08
2022-11-27T17:39:31.775Z,7.99
2022-11-27T17:41:59.780Z,8.03
2022-11-27T17:44:29.345Z,7.99
2022-11-27T17:46:57.350Z,8.00
2022-11-27T17:49:25.465Z,8.04
2022-11-27T17:51:53.641Z,8.10
2022-11-27T17:54:22.218Z,8.09
2022-11-27T17:56:52.593Z,8.04
2022-11-27T17:59:21.876Z,7.99
2022-11-27T18:01:53.142Z,7.99
2022-11-27T18:04:21.842Z,8.00
2022-11-27T18:06:49.963Z,8.02
2022-11-27T18:09:18.105Z,8.12
2022-11-27T18:11:46.189Z,8.05
2022-11-27T18:14:14.446Z,8.12
2022-11-27T18:16:42.563Z,8.05
2022-11-27T18:19:12.729Z,8.13
2022-11-27T18:21:40.935Z,8.01
2022-11-27T18:24:25.252Z,8.02
2022-11-27T18:27:09.861Z,8.08
2022-11-27T18:29:39.849Z,8.08
2022-11-27T18:32:08.393Z,8.03
2022-11-27T18:34:38.223Z,8.12
2022-11-27T18:37:06.563Z,8.15
2022-11-27T18:39:35.289Z,8.12
2022-11-27T18:42:04.870Z,8.02
2022-11-27T18:44:34.691Z,8.14
2022-11-27T18:47:09.836Z,8.06
2022-11-27T18:49:40.431Z,8.11
2022-11-27T18:52:10.409Z,8.17
2022-11-27T18:54:38.574Z,8.12
2022-11-27T18:57:07.776Z,8.00
2022-11-27T18:59:36.240Z,8.04
2022-11-27T19:02:04.773Z,7.96
2022-11-27T19:04:32.881Z,8.03
2022-11-27T19:07:03.036Z,8.07
2022-11-27T19:09:32.249Z,8.08
2022-11-27T19:12:00.192Z,8.02
2022-11-27T19:14:28.293Z,8.04
2022-11-27T19:16:56.627Z,8.09
2022-11-27T19:19:53.491Z,8.06
2022-11-27T19:22:16.912Z,8.13
2022-11-27T19:24:45.078Z,8.09
2022-11-27T19:27:18.009Z,7.93
2022-11-27T19:29:46.185Z,8.11
2022-11-27T19:32:14.169Z,8.11
2022-11-27T19:34:42.518Z,8.13
2022-11-27T19:37:10.804Z,8.13
2022-11-27T19:39:40.172Z,8.10
2022-11-27T19:42:08.156Z,8.12
2022-11-27T19:44:36.659Z,8.05
2022-11-27T19:47:05.455Z,8.04
2022-11-27T19:49:33.854Z,8.04
2022-11-27T19:52:01.904Z,8.08
2022-11-27T19:54:30.129Z,8.02
2022-11-27T19:56:59.941Z,7.98
2022-11-27T19:59:28.076Z,8.01
2022-11-27T20:01:57.364Z,8.04
2022-11-27T20:04:29.729Z,8.06
2022-11-27T20:06:58.516Z,8.05
2022-11-27T20:09:26.523Z,8.11
2022-11-27T20:11:54.875Z,8.13
2022-11-27T20:14:24.145Z,8.09
2022-11-27T20:16:52.414Z,8.09
2022-11-27T20:19:20.770Z,8.11
2022-11-27T20:21:48.863Z,8.08
2022-11-27T20:24:17.016Z,8.16
2022-11-27T20:26:45.460Z,8.05
2022-11-27T20:29:15.626Z,8.02
2022-11-27T20:31:45.800Z,8.01
2022-11-27T20:34:18.760Z,8.00
2022-11-27T20:36:46.966Z,8.05
2022-11-27T20:39:20.574Z,7.93
2022-11-27T20:41:51.072Z,7.98
2022-11-27T20:44:19.244Z,7.88
2022-11-27T20:46:48.947Z,7.92
2022-11-27T20:49:18.524Z,7.93
2022-11-27T20:51:48.979Z,7.97
2022-11-27T20:54:19.594Z,8.04
2022-11-27T20:56:47.804Z,7.95
2022-11-27T20:59:15.769Z,7.97
2022-11-27T21:01:44.605Z,7.99
2022-11-27T21:04:22.352Z,7.90
2022-11-27T21:06:50.830Z,7.96
2022-11-27T21:09:20.917Z,7.99
2022-11-27T21:11:49.039Z,7.96
2022-11-27T21:14:18.428Z,7.91
2022-11-27T21:16:48.851Z,7.95
2022-11-27T21:19:20.730Z,7.89
2022-11-27T21:21:51.493Z,7.77
2022-11-27T21:24:20.124Z,7.85
2022-11-27T21:26:49.013Z,7.94
2022-11-27T21:29:17.317Z,7.86
2022-11-27T21:31:47.496Z,7.89
2022-11-27T21:34:16.631Z,7.87
2022-11-27T21:36:46.710Z,7.75
2022-11-27T21:39:20.435Z,7.76
2022-11-27T21:41:51.656Z,7.77
2022-11-27T21:44:21.591Z,7.82
2022-11-27T21:46:50.340Z,7.76
2022-11-27T21:49:20.362Z,7.83
2022-11-27T21:51:53.320Z,7.91
2022-11-27T21:54:25.141Z,7.87
2022-11-27T21:56:53.574Z,7.85
2022-11-27T21:59:21.637Z,7.81
2022-11-27T22:01:49.892Z,7.81
2022-11-27T22:04:18.494Z,7.77
2022-11-27T22:06:47.048Z,7.83
2022-11-27T22:09:16.546Z,7.89
2022-11-27T22:11:46.136Z,7.95
2022-11-27T22:14:15.767Z,7.87
2022-11-27T22:16:46.437Z,7.85
2022-11-27T22:19:17.056Z,7.70
2022-11-27T22:21:45.854Z,7.82
2022-11-27T22:24:19.330Z,7.78
2022-11-27T22:26:52.942Z,7.94
2022-11-27T22:29:21.060Z,7.85
2022-11-27T22:31:49.198Z,7.77
2022-11-27T22:34:17.721Z,7.76
2022-11-27T22:36:46.745Z,7.84
2022-11-27T22:39:14.814Z,7.87
2022-11-27T22:41:43.996Z,7.82
2022-11-27T22:44:16.540Z,7.85
2022-11-27T22:46:45.061Z,7.82
2022-11-27T22:49:15.018Z,7.67
2022-11-27T22:51:43.668Z,7.70
2022-11-27T22:54:13.898Z,7.68
2022-11-27T22:56:42.353Z,7.70
2022-11-27T23:02:00.908Z,7.55
2022-11-27T23:04:29.526Z,7.40
2022-11-27T23:06:58.912Z,7.47
2022-11-27T23:09:26.991Z,7.38
2022-11-27T23:11:56.388Z,7.28
2022-11-27T23:14:24.683Z,7.26
2022-11-27T23:17:00.737Z,7.19
2022-11-27T23:19:30.081Z,7.12
2022-11-27T23:21:58.023Z,7.09
2022-11-27T23:24:25.950Z,7.07
2022-11-27T23:26:53.850Z,6.83
2022-11-27T23:29:21.778Z,6.66
2022-11-27T23:31:49.809Z,6.53
2022-11-27T23:34:17.767Z,6.41
2022-11-27T23:36:47.041Z,6.39
2022-11-27T23:39:15.408Z,6.37
2022-11-27T23:41:43.665Z,6.30
2022-11-27T23:44:11.694Z,6.32
2022-11-27T23:46:39.715Z,6.32
2022-11-27T23:49:07.731Z,6.29
2022-11-27T23:51:36.022Z,6.10
2022-11-27T23:54:08.292Z,6.29
2022-11-27T23:56:37.434Z,6.21
2022-11-27T23:59:06.054Z,6.13
